Time;durP1;ratioP1;P1;durP2;ratioP2;P2;SDS_P1;SDS_P2;PMS_P1;PMS_P2;Temp;Humidity;BMP_temperature;BMP_pressure;BME280_temperature;BME280_humidity;BME280_pressure;Samples;Min_cycle;Max_cycle;Signal;HPM_P1;HPM_P2
2023/11/20 00:01:50;;;;;;;5.10;4.80;;;;;;;10.95;100.00;100168.16;6019847;23;20554;-72
2023/11/20 00:04:17;;;;;;;4.40;4.20;;;;;;;11.38;100.00;100225.00;6020482;23;20398;-72
2023/11/20 00:06:44;;;;;;;4.30;4.10;;;;;;;11.38;100.00;100212.72;6015790;23;20498;-72
2023/11/20 00:09:10;;;;;;;7.82;4.25;;;;;;;11.37;100.00;100202.31;6023386;23;20054;-74
2023/11/20 00:11:36;;;;;;;4.50;4.30;;;;;;;10.77;100.00;100122.03;5994702;23;20095;-72
2023/11/20 00:14:03;;;;;;;8.10;4.63;;;;;;;11.44;100.00;100211.47;6019608;23;20022;-73
2023/11/20 00:16:29;;;;;;;5.95;5.65;;;;;;;11.42;100.00;100205.47;6023345;23;20027;-72
2023/11/20 00:18:56;;;;;;;4.20;4.00;;;;;;;11.40;100.00;100193.38;6017761;23;20455;-72
2023/11/20 00:21:22;;;;;;;5.18;4.60;;;;;;;11.38;100.00;100190.84;5994256;23;20035;-72
2023/11/20 00:23:50;;;;;;;6.15;4.50;;;;;;;11.18;100.00;100164.09;6022739;23;20022;-71
2023/11/20 00:26:17;;;;;;;4.25;4.05;;;;;;;11.44;100.00;100197.50;5993836;23;20031;-72
2023/11/20 00:28:44;;;;;;;4.10;3.90;;;;;;;11.45;100.00;100181.66;6021170;23;20721;-73
2023/11/20 00:31:17;;;;;;;4.75;4.45;;;;;;;11.30;100.00;100172.09;6000363;23;20107;-72
2023/11/20 00:33:43;;;;;;;4.30;4.10;;;;;;;11.46;100.00;100193.00;6021306;23;20457;-74
2023/11/20 00:36:10;;;;;;;6.88;4.30;;;;;;;11.16;100.00;100146.72;6007365;23;20035;-74
2023/11/20 00:38:36;;;;;;;5.90;5.60;;;;;;;11.40;100.00;100188.13;5988296;23;20057;-74
2023/11/20 00:41:04;;;;;;;4.15;3.95;;;;;;;11.08;100.00;100146.38;6004661;23;20025;-73
2023/11/20 00:43:33;;;;;;;12.68;4.45;;;;;;;10.78;100.00;100134.22;6019915;23;20027;-73
2023/11/20 00:46:00;;;;;;;6.18;4.45;;;;;;;11.35;100.00;100220.78;6000295;23;20053;-72
2023/11/20 00:48:27;;;;;;;6.10;5.68;;;;;;;10.96;100.00;100174.22;5987202;23;20067;-74
2023/11/20 00:50:56;;;;;;;4.22;4.03;;;;;;;10.77;100.00;100167.50;6000942;23;20362;-73
2023/11/20 00:53:23;;;;;;;4.57;4.25;;;;;;;11.38;100.00;100261.78;6022711;23;20058;-73
2023/11/20 00:55:50;;;;;;;4.68;4.18;;;;;;;10.97;100.00;100207.44;6020313;23;20093;-74
2023/11/20 00:58:17;;;;;;;4.57;4.32;;;;;;;11.33;100.00;100272.59;6017785;23;20051;-72
2023/11/20 01:00:43;;;;;;;4.80;4.40;;;;;;;11.01;100.00;100245.69;6016788;23;20023;-73
2023/11/20 01:03:10;;;;;;;4.22;4.03;;;;;;;11.25;100.00;100313.41;5993013;23;20052;-73
2023/11/20 01:05:36;;;;;;;12.27;4.97;;;;;;;11.16;100.00;100335.81;6022590;23;20518;-73
2023/11/20 01:08:03;;;;;;;4.45;4.13;;;;;;;11.12;100.00;100348.28;5993979;23;20098;-72
2023/11/20 01:10:29;;;;;;;5.78;5.50;;;;;;;9.82;100.00;100165.25;6024574;23;20035;-72
2023/11/20 01:12:56;;;;;;;4.10;3.90;;;;;;;10.96;100.00;100369.38;5980840;23;20097;-73
2023/11/20 01:15:22;;;;;;;5.18;4.97;;;;;;;10.91;100.00;100373.22;5995287;23;20034;-73
2023/11/20 01:17:49;;;;;;;5.57;4.20;;;;;;;10.88;100.00;100386.50;6022671;23;20086;-73
2023/11/20 01:20:16;;;;;;;8.30;4.72;;;;;;;10.44;100.00;100321.69;5968027;23;20060;-75
2023/11/20 01:22:42;;;;;;;4.47;4.28;;;;;;;10.62;100.00;100374.91;6022705;23;20038;-74
2023/11/20 01:25:08;;;;;;;4.78;4.47;;;;;;;10.58;100.00;100396.06;5993576;23;20031;-74
2023/11/20 01:27:35;;;;;;;4.50;4.30;;;;;;;10.40;100.00;100343.78;6021580;23;20038;-74
2023/11/20 01:30:02;;;;;;;5.38;4.95;;;;;;;10.74;100.00;100406.53;6030244;23;20368;-75
2023/11/20 01:32:28;;;;;;;6.57;6.28;;;;;;;10.73;100.00;100407.47;5996634;23;20087;-72
2023/11/20 01:34:55;;;;;;;4.40;4.20;;;;;;;10.31;100.00;100348.63;6028219;23;20039;-72
2023/11/20 01:37:21;;;;;;;4.50;4.30;;;;;;;10.77;100.00;100406.34;6022729;23;20090;-73
2023/11/20 01:39:50;;;;;;;4.10;3.90;;;;;;;10.08;100.00;100300.09;6026588;23;20022;-73
2023/11/20 01:42:16;;;;;;;4.60;4.40;;;;;;;10.78;100.00;100404.56;5998499;23;20011;-72
2023/11/20 01:44:43;;;;;;;4.40;4.20;;;;;;;10.35;100.00;100336.19;6021399;23;20503;-73
2023/11/20 01:47:11;;;;;;;4.63;4.32;;;;;;;10.19;100.00;100304.72;5999353;23;20015;-73
2023/11/20 01:49:41;;;;;;;5.10;4.80;;;;;;;10.36;100.00;100327.38;6023434;23;20031;-72
2023/11/20 01:52:09;;;;;;;4.30;4.10;;;;;;;8.83;100.00;100088.75;5999180;23;20030;-73
2023/11/20 01:54:36;;;;;;;6.45;5.90;;;;;;;10.66;100.00;100379.03;5995337;23;20077;-72
2023/11/20 01:57:04;;;;;;;4.32;4.10;;;;;;;10.74;100.00;100368.94;6008715;23;20492;-72
2023/11/20 01:59:31;;;;;;;6.57;4.30;;;;;;;10.28;100.00;100291.06;6021238;23;20025;-73
2023/11/20 02:01:57;;;;;;;5.38;5.07;;;;;;;10.23;100.00;100289.66;6021075;23;20026;-73
2023/11/20 02:04:27;;;;;;;5.57;5.20;;;;;;;10.71;100.00;100358.63;6018851;23;20123;-72
2023/11/20 02:06:53;;;;;;;4.40;4.20;;;;;;;10.11;100.00;100254.50;5996602;23;20034;-73
2023/11/20 02:09:20;;;;;;;4.40;4.20;;;;;;;10.52;100.00;100311.59;6002150;23;20868;-73
2023/11/20 02:11:47;;;;;;;4.50;4.20;;;;;;;10.43;100.00;100297.25;6004536;23;20521;-72
2023/11/20 02:14:15;;;;;;;4.60;4.40;;;;;;;10.60;100.00;100314.63;6019482;23;20026;-74
2023/11/20 02:16:41;;;;;;;4.22;4.03;;;;;;;10.29;100.00;100242.94;6023269;23;20116;-73
2023/11/20 02:19:14;;;;;;;4.32;4.13;;;;;;;10.58;100.00;100303.38;6005781;23;20015;-73
2023/11/20 02:21:42;;;;;;;4.90;4.32;;;;;;;10.62;100.00;100285.66;6026169;23;20053;-73
2023/11/20 02:24:10;;;;;;;5.65;5.35;;;;;;;10.76;100.00;100318.06;5999588;23;20099;-72
2023/11/20 02:26:36;;;;;;;6.20;5.90;;;;;;;10.76;100.00;100306.69;5993227;23;20031;-72
2023/11/20 02:29:25;;;;;;;4.03;3.83;;;;;;;9.96;100.00;100173.19;6024200;23;20035;-72
2023/11/20 02:31:52;;;;;;;4.60;4.35;;;;;;;10.67;100.00;100297.59;6003409;23;20018;-73
2023/11/20 02:34:19;;;;;;;5.22;4.80;;;;;;;10.16;100.00;100203.47;6022807;23;20562;-73
2023/11/20 02:36:45;;;;;;;4.28;4.07;;;;;;;10.19;100.00;100191.97;6004374;23;20031;-72
2023/11/20 02:39:12;;;;;;;5.15;4.43;;;;;;;10.62;100.00;100262.06;6022016;23;20027;-73
2023/11/20 02:41:39;;;;;;;4.80;4.50;;;;;;;10.51;100.00;100223.34;5996236;23;20061;-73
2023/11/20 02:44:06;;;;;;;4.30;4.10;;;;;;;10.72;100.00;100250.94;6020467;23;20743;-72
2023/11/20 02:46:32;;;;;;;6.25;5.78;;;;;;;10.12;100.00;100139.03;6027311;23;20061;-74
2023/11/20 02:48:59;;;;;;;5.35;5.05;;;;;;;9.72;100.00;100056.66;6021675;23;20497;-73
2023/11/20 02:51:27;;;;;;;4.45;4.25;;;;;;;10.71;100.00;100216.91;6027300;23;20473;-72
2023/11/20 02:53:54;;;;;;;12.45;5.35;;;;;;;10.71;100.00;100212.50;6031721;23;20053;-73
2023/11/20 02:56:20;;;;;;;4.38;4.18;;;;;;;10.48;100.00;100171.03;6004308;23;20027;-74
2023/11/20 02:58:47;;;;;;;4.20;4.00;;;;;;;10.71;100.00;100207.25;6025296;23;20119;-73
2023/11/20 03:01:15;;;;;;;6.57;5.10;;;;;;;10.75;100.00;100193.00;5997490;23;20030;-73
2023/11/20 03:03:41;;;;;;;6.80;4.45;;;;;;;10.70;100.00;100181.91;5993172;23;20023;-73
2023/11/20 03:06:08;;;;;;;4.30;4.10;;;;;;;10.62;100.00;100175.47;6026012;23;20094;-73
2023/11/20 03:08:38;;;;;;;5.38;5.18;;;;;;;10.36;100.00;100138.53;5972327;23;20019;-73
2023/11/20 03:11:04;;;;;;;4.30;4.10;;;;;;;10.15;100.00;100130.97;6020930;23;20109;-73
2023/11/20 03:13:31;;;;;;;4.80;4.60;;;;;;;10.32;100.00;100142.28;5993569;23;20015;-73
2023/11/20 03:15:57;;;;;;;4.07;3.88;;;;;;;10.34;100.00;100151.75;6022811;23;20489;-73
2023/11/20 03:18:24;;;;;;;5.72;5.40;;;;;;;10.49;100.00;100172.75;6018511;23;20117;-72
2023/11/20 03:20:50;;;;;;;4.40;4.20;;;;;;;10.28;100.00;100135.50;6027973;23;20034;-75
2023/11/20 03:23:16;;;;;;;4.75;4.45;;;;;;;9.94;100.00;100093.78;5997057;23;20054;-73
2023/11/20 03:25:43;;;;;;;11.43;4.40;;;;;;;10.31;100.00;100178.16;6021050;23;20033;-72
2023/11/20 03:28:10;;;;;;;4.30;4.10;;;;;;;9.95;100.00;100113.81;5998354;23;20524;-74
2023/11/20 03:30:36;;;;;;;5.90;5.60;;;;;;;10.32;100.00;100179.84;5998016;23;20041;-73
2023/11/20 03:33:03;;;;;;;11.48;3.85;;;;;;;9.83;100.00;100113.69;6024059;23;20061;-73
2023/11/20 03:35:29;;;;;;;4.93;4.50;;;;;;;10.30;100.00;100194.84;5998136;23;20059;-73
2023/11/20 03:37:56;;;;;;;4.35;4.15;;;;;;;9.80;100.00;100114.69;6021530;23;20316;-72
2023/11/20 03:40:22;;;;;;;5.07;4.85;;;;;;;10.21;100.00;100207.63;5993178;23;20090;-73
2023/11/20 03:42:49;;;;;;;4.88;4.53;;;;;;;9.74;100.00;100133.41;6021674;23;20114;-72
2023/11/20 03:45:16;;;;;;;4.20;4.00;;;;;;;10.10;100.00;100205.59;6022271;23;20030;-73
2023/11/20 03:47:42;;;;;;;4.60;4.25;;;;;;;9.49;100.00;100111.25;6025278;23;20117;-73
2023/11/20 03:50:09;;;;;;;4.40;4.20;;;;;;;10.22;100.00;100241.59;5996146;23;20007;-72
2023/11/20 03:52:35;;;;;;;5.75;5.55;;;;;;;10.22;100.00;100246.84;6018403;23;20110;-73
2023/11/20 03:55:02;;;;;;;4.22;4.03;;;;;;;8.48;100.00;99947.69;6022625;23;20081;-73
2023/11/20 03:57:29;;;;;;;4.43;4.22;;;;;;;10.43;100.00;100254.44;5997676;23;20549;-74
2023/11/20 03:59:55;;;;;;;4.05;3.85;;;;;;;10.46;100.00;100259.50;6024244;23;20043;-73
2023/11/20 04:02:22;;;;;;;5.03;4.55;;;;;;;10.38;100.00;100267.81;5991453;23;20107;-73
2023/11/20 04:04:48;;;;;;;4.30;4.10;;;;;;;10.46;100.00;100264.75;6025404;23;20046;-73
2023/11/20 04:07:15;;;;;;;4.13;3.92;;;;;;;10.48;100.00;100268.13;5993145;23;20749;-72
2023/11/20 04:09:41;;;;;;;4.45;4.25;;;;;;;10.05;100.00;100202.41;5999293;23;20352;-74
2023/11/20 04:12:09;;;;;;;5.07;4.57;;;;;;;10.14;100.00;100233.31;5994201;23;20521;-73
2023/11/20 04:14:35;;;;;;;6.03;5.72;;;;;;;10.54;100.00;100286.13;5990404;23;20027;-72
2023/11/20 04:17:02;;;;;;;4.55;4.25;;;;;;;10.34;100.00;100255.81;5996995;23;20616;-73
2023/11/20 04:19:30;;;;;;;4.55;4.35;;;;;;;10.51;100.00;100286.31;6018922;23;20079;-72
2023/11/20 04:21:56;;;;;;;4.68;4.38;;;;;;;10.01;100.00;100203.53;6020468;23;20099;-73
2023/11/20 04:24:23;;;;;;;5.07;4.85;;;;;;;10.29;100.00;100257.84;6001854;23;20044;-74
2023/11/20 04:26:49;;;;;;;4.68;4.40;;;;;;;10.33;100.00;100275.94;6020079;23;20026;-73
2023/11/20 04:29:16;;;;;;;6.70;4.22;;;;;;;10.16;100.00;100273.41;6025265;23;20591;-72
2023/11/20 04:31:42;;;;;;;4.60;4.30;;;;;;;10.44;100.00;100298.91;6019811;23;20100;-74
2023/11/20 04:34:09;;;;;;;4.40;4.20;;;;;;;9.89;100.00;100236.53;6003127;23;20097;-73
2023/11/20 04:36:35;;;;;;;6.28;5.78;;;;;;;10.36;100.00;100309.03;6015964;23;20027;-74
2023/11/20 04:39:02;;;;;;;6.65;4.20;;;;;;;10.47;100.00;100327.63;6007211;23;20159;-73
2023/11/20 04:41:29;;;;;;;6.50;5.20;;;;;;;10.56;100.00;100334.09;6024121;23;20083;-72
2023/11/20 04:43:55;;;;;;;4.22;4.03;;;;;;;10.56;100.00;100357.72;6028508;23;20621;-74
2023/11/20 04:46:22;;;;;;;5.07;4.55;;;;;;;10.55;100.00;100337.69;6023714;23;20087;-73
2023/11/20 04:48:48;;;;;;;7.47;4.32;;;;;;;10.53;100.00;100326.44;6024051;23;20022;-74
2023/11/20 04:51:19;;;;;;;4.00;3.80;;;;;;;10.04;100.00;100255.75;6002040;23;20035;-73
2023/11/20 04:53:46;;;;;;;4.30;4.10;;;;;;;10.48;100.00;100344.19;6030363;23;20018;-73
2023/11/20 04:56:13;;;;;;;4.30;4.10;;;;;;;9.92;100.00;100263.41;5993470;23;20047;-74
2023/11/20 04:58:39;;;;;;;4.78;4.50;;;;;;;10.07;100.00;100289.69;6025373;23;20054;-73
2023/11/20 05:01:07;;;;;;;5.50;4.53;;;;;;;9.74;100.00;100227.72;5997939;23;20427;-74
2023/11/20 05:03:35;;;;;;;4.47;4.28;;;;;;;10.44;100.00;100329.56;6025257;23;20273;-73
2023/11/20 05:06:03;;;;;;;4.32;4.13;;;;;;;9.97;100.00;100248.25;6028246;23;20055;-74
2023/11/20 05:08:29;;;;;;;5.65;5.45;;;;;;;10.14;100.00;100281.38;6016421;23;20031;-74
2023/11/20 05:10:55;;;;;;;4.57;4.38;;;;;;;10.32;100.00;100290.00;6004116;23;20070;-74
2023/11/20 05:13:22;;;;;;;4.68;4.10;;;;;;;10.45;100.00;100289.31;6021003;23;20003;-72
2023/11/20 05:15:48;;;;;;;4.72;4.15;;;;;;;9.26;100.00;100077.66;6030229;23;20615;-73
2023/11/20 05:18:15;;;;;;;4.32;4.13;;;;;;;10.35;100.00;100252.25;5999182;23;20111;-73
2023/11/20 05:20:41;;;;;;;4.53;4.32;;;;;;;10.32;100.00;100236.69;6019490;23;20086;-74
2023/11/20 05:23:08;;;;;;;4.68;4.38;;;;;;;9.57;100.00;100124.75;6024842;23;20101;-73
2023/11/20 05:25:35;;;;;;;5.03;4.82;;;;;;;10.10;100.00;100224.81;6023805;23;20034;-73
2023/11/20 05:28:01;;;;;;;4.18;3.95;;;;;;;9.27;100.00;100084.59;6023380;23;20457;-73
2023/11/20 05:30:28;;;;;;;5.88;5.55;;;;;;;9.59;100.00;100127.28;6022921;23;20117;-74
2023/11/20 05:32:56;;;;;;;4.38;4.18;;;;;;;9.83;100.00;100176.59;6025263;23;20030;-74
2023/11/20 05:35:25;;;;;;;4.72;4.35;;;;;;;9.97;100.00;100187.97;6000758;23;20019;-72
2023/11/20 05:37:52;;;;;;;4.40;4.20;;;;;;;10.15;100.00;100221.91;6021918;23;20086;-73
2023/11/20 05:40:18;;;;;;;4.70;4.47;;;;;;;9.81;100.00;100133.91;5984907;23;20646;-73
2023/11/20 05:42:45;;;;;;;5.88;4.78;;;;;;;10.26;100.00;100190.66;6000873;23;20062;-73
2023/11/20 05:45:12;;;;;;;4.00;3.80;;;;;;;9.97;100.00;100126.84;6003963;23;20078;-73
2023/11/20 05:47:38;;;;;;;6.95;4.40;;;;;;;9.74;100.00;100065.28;6024394;23;20729;-72
2023/11/20 05:50:05;;;;;;;5.45;4.95;;;;;;;10.40;100.00;100160.16;6020541;23;20027;-74
2023/11/20 05:52:32;;;;;;;5.70;5.43;;;;;;;10.43;100.00;100154.75;6024687;23;20034;-73
2023/11/20 05:54:59;;;;;;;4.35;4.05;;;;;;;10.48;100.00;100158.75;5999814;23;20058;-73
2023/11/20 05:57:27;;;;;;;4.35;4.15;;;;;;;10.24;100.00;100120.88;6026592;23;20019;-73
2023/11/20 05:59:53;;;;;;;7.45;4.57;;;;;;;10.11;100.00;100086.69;6000562;23;20038;-73
2023/11/20 06:02:20;;;;;;;4.65;4.40;;;;;;;10.36;100.00;100138.53;6022656;23;20098;-74
2023/11/20 06:04:46;;;;;;;4.22;4.03;;;;;;;10.05;100.00;100097.53;6023515;23;20042;-72
2023/11/20 06:07:14;;;;;;;4.50;4.25;;;;;;;10.44;100.00;100157.25;5995933;23;20047;-73
2023/11/20 06:09:41;;;;;;;4.35;4.15;;;;;;;10.23;100.00;100143.63;6023349;23;20092;-73
2023/11/20 06:12:07;;;;;;;6.18;4.55;;;;;;;10.41;100.00;100154.00;6022196;23;20046;-72
2023/11/20 06:14:34;;;;;;;6.20;5.80;;;;;;;10.36;100.00;100155.13;5968338;23;20047;-72
2023/11/20 06:17:00;;;;;;;4.50;4.20;;;;;;;10.41;100.00;100162.72;6027972;23;20483;-73
2023/11/20 06:19:27;;;;;;;9.63;4.38;;;;;;;9.09;100.00;99951.19;6000992;23;20120;-74
2023/11/20 06:21:54;;;;;;;12.68;4.30;;;;;;;10.01;100.00;100094.25;6001513;23;20321;-72
2023/11/20 06:24:21;;;;;;;4.97;4.43;;;;;;;10.34;100.00;100161.38;5996850;23;20030;-72
2023/11/20 06:26:47;;;;;;;4.30;4.10;;;;;;;9.74;100.00;100084.47;6020437;23;20097;-72
2023/11/20 06:29:14;;;;;;;4.55;4.35;;;;;;;10.24;100.00;100197.75;6007540;23;20031;-73
2023/11/20 06:31:40;;;;;;;5.30;4.80;;;;;;;10.27;100.00;100202.84;5990900;23;20038;-72
2023/11/20 06:34:08;;;;;;;8.55;4.65;;;;;;;9.94;100.00;100146.22;6006433;23;20013;-72
2023/11/20 06:36:37;;;;;;;5.57;5.38;;;;;;;10.32;100.00;100189.47;5990686;23;20035;-72
2023/11/20 06:39:05;;;;;;;4.40;4.20;;;;;;;10.35;100.00;100195.41;5997006;23;20021;-72
2023/11/20 06:41:32;;;;;;;5.55;4.18;;;;;;;10.32;100.00;100195.59;6023122;23;20023;-73
2023/11/20 06:44:00;;;;;;;4.50;4.25;;;;;;;9.96;100.00;100133.00;6016322;23;20561;-73
2023/11/20 06:46:27;;;;;;;5.47;5.22;;;;;;;9.91;100.00;100112.31;5977707;23;20071;-73
2023/11/20 06:48:53;;;;;;;4.22;4.03;;;;;;;9.67;100.00;100085.75;6018710;23;20032;-75
2023/11/20 06:51:20;;;;;;;4.40;4.20;;;;;;;9.96;100.00;100133.00;6025289;23;20089;-73
2023/11/20 06:53:46;;;;;;;4.82;4.53;;;;;;;9.74;100.00;100100.19;6018629;23;20918;-74
2023/11/20 06:56:19;;;;;;;4.18;3.97;;;;;;;9.86;100.00;100118.75;6025179;23;20027;-73
2023/11/20 06:58:47;;;;;;;4.72;4.43;;;;;;;9.73;100.00;100113.38;5999230;23;20491;-73
2023/11/20 07:01:17;;;;;;;4.57;4.28;;;;;;;10.12;100.00;100178.38;6020330;23;20033;-72
2023/11/20 07:03:44;;;;;;;4.88;4.68;;;;;;;9.97;100.00;100167.00;5995578;23;20082;-72
2023/11/20 07:06:12;;;;;;;4.22;4.03;;;;;;;10.13;100.00;100202.81;6022409;23;20560;-71
2023/11/20 07:08:39;;;;;;;7.45;5.50;;;;;;;9.68;100.00;100132.00;5990709;23;20067;-71
2023/11/20 07:11:06;;;;;;;4.40;4.20;;;;;;;9.63;100.00;100143.66;6023063;23;20025;-71
2023/11/20 07:13:33;;;;;;;4.88;4.60;;;;;;;9.68;100.00;100167.81;5996225;23;20018;-71
2023/11/20 07:15:59;;;;;;;4.53;4.15;;;;;;;9.94;100.00;100222.22;6025735;23;20067;-71
2023/11/20 07:18:26;;;;;;;5.85;5.47;;;;;;;9.91;100.00;100229.41;5990176;23;20011;-71
2023/11/20 07:20:54;;;;;;;4.55;4.35;;;;;;;9.88;100.00;100226.97;6010449;23;20031;-71
2023/11/20 07:23:21;;;;;;;18.00;4.35;;;;;;;9.85;100.00;100237.63;6021422;23;20050;-72
2023/11/20 07:25:48;;;;;;;9.90;4.80;;;;;;;9.80;100.00;100211.66;6022441;23;20707;-71
2023/11/20 07:28:15;;;;;;;7.40;4.05;;;;;;;9.71;100.00;100199.94;5993793;23;20788;-72
2023/11/20 07:30:43;;;;;;;8.48;5.30;;;;;;;9.82;100.00;100195.84;6018827;23;20022;-72
2023/11/20 07:33:10;;;;;;;4.07;3.88;;;;;;;8.52;100.00;99971.88;6023990;23;20599;-71
2023/11/20 07:35:36;;;;;;;4.55;4.35;;;;;;;9.95;100.00;100184.59;6023713;23;20046;-71
2023/11/20 07:38:03;;;;;;;10.15;4.40;;;;;;;10.25;100.00;100225.69;5994538;23;20140;-72
2023/11/20 07:40:29;;;;;;;6.00;5.70;;;;;;;10.27;100.00;100223.81;6005467;23;20039;-72
2023/11/20 07:42:56;;;;;;;4.30;4.10;;;;;;;10.34;100.00;100214.69;6015763;23;20388;-71
2023/11/20 07:45:23;;;;;;;4.60;4.30;;;;;;;10.08;100.00;100162.88;6008931;23;20364;-70
2023/11/20 07:47:52;;;;;;;9.18;4.32;;;;;;;9.97;100.00;100138.16;6020305;23;20062;-71
2023/11/20 07:50:19;;;;;;;4.30;4.00;;;;;;;9.95;100.00;100113.81;6019154;23;20122;-73
2023/11/20 07:52:46;;;;;;;4.82;4.40;;;;;;;10.26;100.00;100159.19;5994181;23;20038;-71
2023/11/20 07:55:12;;;;;;;7.07;4.30;;;;;;;10.34;100.00;100159.63;6021701;23;20038;-72
2023/11/20 07:57:40;;;;;;;6.00;4.90;;;;;;;10.16;100.00;100131.81;5996682;23;20107;-71
2023/11/20 08:00:11;;;;;;;4.85;4.45;;;;;;;9.17;100.00;99961.22;6022607;23;20683;-72
2023/11/20 08:02:38;;;;;;;5.95;5.65;;;;;;;10.47;100.00;100164.13;5992131;23;20079;-71
2023/11/20 08:05:05;;;;;;;4.95;4.57;;;;;;;10.26;100.00;100139.97;6024842;23;20462;-71
2023/11/20 08:07:33;;;;;;;5.00;4.55;;;;;;;9.70;100.00;100045.44;5991822;23;20043;-72
2023/11/20 08:10:00;;;;;;;4.60;4.40;;;;;;;9.68;100.00;100065.63;6016937;23;20030;-72
2023/11/20 08:12:28;;;;;;;6.07;5.65;;;;;;;10.08;100.00;100139.28;5993998;23;20031;-71
2023/11/20 08:14:54;;;;;;;10.55;4.75;;;;;;;9.32;100.00;100033.66;6020285;23;20327;-72
2023/11/20 08:17:21;;;;;;;4.68;4.25;;;;;;;10.02;100.00;100118.69;5994223;23;20015;-71
2023/11/20 08:19:48;;;;;;;4.53;4.15;;;;;;;10.27;100.00;100171.38;6018212;23;20026;-71
2023/11/20 08:22:15;;;;;;;5.97;5.68;;;;;;;9.91;100.00;100130.66;5998695;23;20033;-72
2023/11/20 08:24:43;;;;;;;4.40;4.20;;;;;;;10.30;100.00;100202.72;6012606;23;20109;-72
2023/11/20 08:27:10;;;;;;;10.00;4.70;;;;;;;10.32;100.00;100207.84;5995157;23;20467;-71
2023/11/20 08:29:36;;;;;;;5.60;5.13;;;;;;;9.91;100.00;100151.63;6022734;23;20082;-72
2023/11/20 08:32:03;;;;;;;4.38;4.18;;;;;;;10.27;100.00;100218.56;6017761;23;20062;-72
2023/11/20 08:34:30;;;;;;;5.85;5.55;;;;;;;10.26;100.00;100213.41;5995386;23;20023;-71
2023/11/20 08:36:56;;;;;;;5.93;4.10;;;;;;;10.16;100.00;100192.13;6013818;23;20572;-72
2023/11/20 08:39:31;;;;;;;4.38;4.18;;;;;;;10.43;100.00;100208.06;6023226;23;20089;-72
2023/11/20 08:41:59;;;;;;;4.35;4.15;;;;;;;10.19;100.00;100137.72;5996616;23;20030;-72
2023/11/20 08:44:28;;;;;;;5.57;5.35;;;;;;;9.97;100.00;100093.59;6017807;23;20562;-72
2023/11/20 08:46:55;;;;;;;4.40;4.20;;;;;;;10.27;100.00;100147.78;5992184;23;20038;-72
2023/11/20 08:49:21;;;;;;;4.82;4.43;;;;;;;10.45;100.00;100169.47;6019640;23;20100;-72
2023/11/20 08:51:48;;;;;;;5.10;4.70;;;;;;;10.57;100.00;100168.72;6014672;23;20041;-72
2023/11/20 08:54:27;;;;;;;6.90;6.35;;;;;;;10.04;100.00;100080.13;5989893;23;20029;-73
2023/11/20 08:56:53;;;;;;;4.90;4.63;;;;;;;10.78;100.00;100177.06;5998955;23;20030;-72
2023/11/20 08:59:20;;;;;;;4.30;4.07;;;;;;;10.23;100.00;100057.09;5969344;23;20043;-73
2023/11/20 09:01:47;;;;;;;5.10;4.60;;;;;;;10.91;100.00;100157.94;6017015;23;20064;-72
2023/11/20 09:04:14;;;;;;;4.63;4.38;;;;;;;10.89;100.00;100129.16;6021242;23;20038;-70
2023/11/20 09:06:40;;;;;;;4.85;4.55;;;;;;;9.85;100.00;99970.31;5997066;23;20099;-70
2023/11/20 09:09:08;;;;;;;4.80;4.40;;;;;;;10.88;100.00;100153.69;5996142;23;20033;-73
2023/11/20 09:11:34;;;;;;;5.13;4.60;;;;;;;10.92;100.00;100164.84;5999166;23;20533;-70
2023/11/20 09:14:01;;;;;;;4.75;4.50;;;;;;;10.68;100.00;100128.69;5989308;23;20035;-72
2023/11/20 09:16:28;;;;;;;5.75;5.45;;;;;;;10.01;100.00;100018.25;5991766;23;20031;-70
2023/11/20 09:18:55;;;;;;;5.07;4.68;;;;;;;10.81;100.00;100148.94;5992718;23;20022;-72
2023/11/20 09:21:21;;;;;;;4.40;4.20;;;;;;;10.67;100.00;100166.38;6023202;23;20026;-72
2023/11/20 09:23:49;;;;;;;4.60;4.32;;;;;;;10.78;100.00;100219.06;5991037;23;20070;-73
2023/11/20 09:26:16;;;;;;;5.25;4.95;;;;;;;10.76;100.00;100226.19;5999952;23;20062;-72
2023/11/20 09:28:42;;;;;;;4.57;4.38;;;;;;;10.92;100.00;100254.94;5874725;23;20015;-71
2023/11/20 09:31:19;;;;;;;4.60;4.30;;;;;;;10.48;100.00;100173.66;6023736;23;20596;-72
2023/11/20 09:33:48;;;;;;;5.00;4.22;;;;;;;10.72;100.00;100213.31;6024106;23;20027;-71
2023/11/20 09:36:15;;;;;;;4.35;4.15;;;;;;;10.94;100.00;100213.72;6005937;23;20075;-72
2023/11/20 09:38:42;;;;;;;5.93;4.50;;;;;;;11.02;100.00;100194.84;6017724;23;20105;-72
2023/11/20 09:41:09;;;;;;;5.05;4.65;;;;;;;11.20;100.00;100194.66;6026786;23;20620;-72
2023/11/20 09:43:37;;;;;;;5.47;5.05;;;;;;;10.52;100.00;100055.34;6016567;23;20023;-71
2023/11/20 09:46:07;;;;;;;4.80;4.60;;;;;;;10.55;100.00;100091.88;5999832;23;20027;-72
2023/11/20 09:48:37;;;;;;;5.93;5.63;;;;;;;10.62;100.00;100105.44;6018816;23;20016;-72
2023/11/20 09:51:07;;;;;;;5.57;5.28;;;;;;;10.60;100.00;100111.75;6002857;23;20051;-72
2023/11/20 09:53:40;;;;;;;8.75;4.60;;;;;;;10.87;100.00;100148.56;5996191;23;20031;-71
2023/11/20 09:56:09;;;;;;;4.55;4.32;;;;;;;10.37;100.00;100067.63;6023047;23;20042;-71
2023/11/20 09:58:36;;;;;;;5.82;5.53;;;;;;;11.04;100.00;100152.75;6023823;23;20030;-72
2023/11/20 10:01:10;;;;;;;5.40;5.10;;;;;;;11.14;100.00;100117.09;6020470;23;20041;-71
2023/11/20 10:03:42;;;;;;;6.28;4.57;;;;;;;11.16;100.00;100102.06;6019544;23;20023;-71
2023/11/20 10:06:13;;;;;;;4.70;4.40;;;;;;;10.66;100.00;100030.84;5999670;23;20141;-71
2023/11/20 10:08:41;;;;;;;4.93;4.60;;;;;;;11.32;100.00;100089.63;6015461;23;20094;-71
2023/11/20 10:11:11;;;;;;;4.97;4.68;;;;;;;11.09;100.00;100058.78;5995156;23;20019;-71
2023/11/20 10:13:39;;;;;;;4.38;4.18;;;;;;;11.36;100.00;100113.91;5996835;23;20038;-71
2023/11/20 10:16:13;;;;;;;5.68;4.68;;;;;;;10.96;100.00;100033.31;5998638;23;20066;-70
2023/11/20 10:18:42;;;;;;;5.22;4.85;;;;;;;11.39;100.00;100103.22;5993503;23;20031;-70
2023/11/20 10:21:11;;;;;;;5.07;4.75;;;;;;;11.14;100.00;100056.69;6001038;23;20038;-70
2023/11/20 10:23:39;;;;;;;4.72;4.32;;;;;;;11.24;100.00;100062.19;6023698;23;20042;-70
2023/11/20 10:26:07;;;;;;;6.68;4.60;;;;;;;11.55;100.00;100095.19;6018300;23;20012;-71
2023/11/20 10:28:39;;;;;;;6.50;5.60;;;;;;;10.75;100.00;99977.78;6019802;23;20030;-70
2023/11/20 10:31:05;;;;;;;4.70;4.50;;;;;;;11.56;100.00;100094.22;6005610;23;20026;-72
2023/11/20 10:33:33;;;;;;;4.35;4.15;;;;;;;11.35;100.00;100083.34;6025617;23;20695;-72
2023/11/20 10:36:17;;;;;;;4.80;4.53;;;;;;;11.17;100.00;100065.22;6024184;23;20030;-71
2023/11/20 10:38:43;;;;;;;4.90;4.50;;;;;;;11.57;100.00;100114.31;5998586;23;20022;-71
2023/11/20 10:41:11;;;;;;;4.90;4.65;;;;;;;11.17;100.00;100049.44;5971687;23;20674;-70
2023/11/20 10:43:40;;;;;;;4.72;4.53;;;;;;;11.45;100.00;100076.56;5997741;23;20513;-70
2023/11/20 10:46:07;;;;;;;4.47;4.28;;;;;;;10.95;100.00;99963.34;5996590;23;20081;-69
2023/11/20 10:48:36;;;;;;;5.78;5.47;;;;;;;11.77;100.00;100040.22;6017356;23;20010;-70
2023/11/20 10:51:11;;;;;;;5.40;5.03;;;;;;;11.79;100.00;99990.19;5998959;23;20031;-72
2023/11/20 10:53:42;;;;;;;5.00;4.70;;;;;;;11.88;100.00;99926.44;6025305;23;20027;-71
2023/11/20 10:56:12;;;;;;;4.85;4.63;;;;;;;11.43;100.00;99852.47;5994111;23;20027;-71
2023/11/20 10:58:40;;;;;;;6.20;5.60;;;;;;;12.22;100.00;99957.44;6022801;23;20034;-71
2023/11/20 11:01:07;;;;;;;4.63;4.43;;;;;;;12.17;100.00;99918.31;5995563;23;20120;-71
2023/11/20 11:03:37;;;;;;;4.90;4.60;;;;;;;12.15;100.00;99909.69;6026252;23;20030;-72
2023/11/20 11:06:14;;;;;;;4.88;4.68;;;;;;;11.77;100.00;99845.69;5998284;23;20054;-72
2023/11/20 11:08:46;;;;;;;6.60;4.70;;;;;;;12.07;100.00;99868.16;5993701;23;20081;-71
2023/11/20 11:11:16;;;;;;;4.75;4.53;;;;;;;11.76;100.00;99853.69;6021719;23;20033;-71
2023/11/20 11:13:44;;;;;;;5.20;4.90;;;;;;;11.71;100.00;99876.84;6011350;23;20022;-71
2023/11/20 11:16:21;;;;;;;4.70;4.50;;;;;;;11.88;100.00;99909.81;6022889;23;20027;-69
2023/11/20 11:19:00;;;;;;;4.50;4.20;;;;;;;11.05;100.00;99795.56;5993039;23;20047;-71
2023/11/20 11:21:35;;;;;;;4.57;4.38;;;;;;;11.46;100.00;99847.00;5995218;23;20431;-70